sensor_id;sensor_type;location;lat;lon;timestamp;temperature;humidity
78767;SHT31;68092;51.982;5.680;2024-03-08T00:00:23;9.1;52.9
78767;SHT31;68092;51.982;5.680;2024-03-08T00:02:52;9.1;52.8
78767;SHT31;68092;51.982;5.680;2024-03-08T00:05:24;9.1;52.8
78767;SHT31;68092;51.982;5.680;2024-03-08T00:07:53;9.1;52.8
78767;SHT31;68092;51.982;5.680;2024-03-08T00:10:22;9.0;52.7
78767;SHT31;68092;51.982;5.680;2024-03-08T00:12:50;9.0;52.7
78767;SHT31;68092;51.982;5.680;2024-03-08T00:15:20;9.0;52.7
78767;SHT31;68092;51.982;5.680;2024-03-08T00:17:49;8.9;52.7
78767;SHT31;68092;51.982;5.680;2024-03-08T00:20:18;8.9;52.9
78767;SHT31;68092;51.982;5.680;2024-03-08T00:22:46;8.9;52.8
78767;SHT31;68092;51.982;5.680;2024-03-08T00:25:15;8.9;52.6
78767;SHT31;68092;51.982;5.680;2024-03-08T00:27:45;8.9;52.6
78767;SHT31;68092;51.982;5.680;2024-03-08T00:30:15;8.9;52.6
78767;SHT31;68092;51.982;5.680;2024-03-08T00:32:44;8.9;52.5
78767;SHT31;68092;51.982;5.680;2024-03-08T00:35:13;8.9;52.4
78767;SHT31;68092;51.982;5.680;2024-03-08T00:37:42;8.8;52.5
78767;SHT31;68092;51.982;5.680;2024-03-08T00:40:13;8.8;52.2
78767;SHT31;68092;51.982;5.680;2024-03-08T00:42:42;8.8;52.4
78767;SHT31;68092;51.982;5.680;2024-03-08T00:45:11;8.8;52.4
78767;SHT31;68092;51.982;5.680;2024-03-08T00:47:40;8.8;52.3
78767;SHT31;68092;51.982;5.680;2024-03-08T00:50:12;8.8;52.2
78767;SHT31;68092;51.982;5.680;2024-03-08T00:52:41;8.8;52.2
78767;SHT31;68092;51.982;5.680;2024-03-08T00:55:12;8.8;52.1
78767;SHT31;68092;51.982;5.680;2024-03-08T00:57:41;8.8;52.2
78767;SHT31;68092;51.982;5.680;2024-03-08T01:00:10;8.7;52.2
78767;SHT31;68092;51.982;5.680;2024-03-08T01:02:39;8.7;52.0
78767;SHT31;68092;51.982;5.680;2024-03-08T01:05:08;8.7;52.0
78767;SHT31;68092;51.982;5.680;2024-03-08T01:07:37;8.7;52.0
78767;SHT31;68092;51.982;5.680;2024-03-08T01:10:06;8.6;52.0
78767;SHT31;68092;51.982;5.680;2024-03-08T01:12:37;8.6;52.1
78767;SHT31;68092;51.982;5.680;2024-03-08T01:15:06;8.6;52.0
78767;SHT31;68092;51.982;5.680;2024-03-08T01:17:35;8.6;52.1
78767;SHT31;68092;51.982;5.680;2024-03-08T01:20:04;8.6;52.1
78767;SHT31;68092;51.982;5.680;2024-03-08T01:22:33;8.5;52.1
78767;SHT31;68092;51.982;5.680;2024-03-08T01:25:02;8.5;52.0
78767;SHT31;68092;51.982;5.680;2024-03-08T01:27:31;8.5;52.0
78767;SHT31;68092;51.982;5.680;2024-03-08T01:30:01;8.4;52.1
78767;SHT31;68092;51.982;5.680;2024-03-08T01:32:31;8.4;52.1
78767;SHT31;68092;51.982;5.680;2024-03-08T01:35:00;8.4;52.1
78767;SHT31;68092;51.982;5.680;2024-03-08T01:37:29;8.4;52.2
78767;SHT31;68092;51.982;5.680;2024-03-08T01:39:58;8.3;52.0
78767;SHT31;68092;51.982;5.680;2024-03-08T01:42:26;8.3;52.1
78767;SHT31;68092;51.982;5.680;2024-03-08T01:44:55;8.3;52.1
78767;SHT31;68092;51.982;5.680;2024-03-08T01:47:23;8.3;52.0
78767;SHT31;68092;51.982;5.680;2024-03-08T01:49:52;8.3;51.9
78767;SHT31;68092;51.982;5.680;2024-03-08T01:52:22;8.3;51.9
78767;SHT31;68092;51.982;5.680;2024-03-08T01:54:51;8.2;51.9
78767;SHT31;68092;51.982;5.680;2024-03-08T01:57:21;8.2;51.8
78767;SHT31;68092;51.982;5.680;2024-03-08T01:59:50;8.2;51.6
78767;SHT31;68092;51.982;5.680;2024-03-08T02:02:22;8.2;51.7
78767;SHT31;68092;51.982;5.680;2024-03-08T02:04:51;8.2;51.5
78767;SHT31;68092;51.982;5.680;2024-03-08T02:07:20;8.2;51.4
78767;SHT31;68092;51.982;5.680;2024-03-08T02:09:50;8.1;51.5
78767;SHT31;68092;51.982;5.680;2024-03-08T02:12:20;8.1;51.5
78767;SHT31;68092;51.982;5.680;2024-03-08T02:14:49;8.1;51.5
78767;SHT31;68092;51.982;5.680;2024-03-08T02:17:17;8.1;51.5
78767;SHT31;68092;51.982;5.680;2024-03-08T02:19:48;8.0;51.5
78767;SHT31;68092;51.982;5.680;2024-03-08T02:22:17;8.0;51.4
78767;SHT31;68092;51.982;5.680;2024-03-08T02:24:46;8.0;51.1
78767;SHT31;68092;51.982;5.680;2024-03-08T02:27:15;8.0;51.2
78767;SHT31;68092;51.982;5.680;2024-03-08T02:29:49;7.9;51.3
78767;SHT31;68092;51.982;5.680;2024-03-08T02:32:19;7.9;51.5
78767;SHT31;68092;51.982;5.680;2024-03-08T02:34:47;7.9;51.4
78767;SHT31;68092;51.982;5.680;2024-03-08T02:37:17;7.9;51.3
78767;SHT31;68092;51.982;5.680;2024-03-08T02:39:46;7.9;51.3
78767;SHT31;68092;51.982;5.680;2024-03-08T02:42:14;7.9;51.2
78767;SHT31;68092;51.982;5.680;2024-03-08T02:44:44;7.9;51.2
78767;SHT31;68092;51.982;5.680;2024-03-08T02:47:13;7.8;51.2
78767;SHT31;68092;51.982;5.680;2024-03-08T02:49:42;7.8;51.2
78767;SHT31;68092;51.982;5.680;2024-03-08T02:52:10;7.8;51.3
78767;SHT31;68092;51.982;5.680;2024-03-08T02:54:39;7.8;51.2
78767;SHT31;68092;51.982;5.680;2024-03-08T02:57:10;7.8;51.2
78767;SHT31;68092;51.982;5.680;2024-03-08T02:59:40;7.8;51.2
78767;SHT31;68092;51.982;5.680;2024-03-08T03:02:09;7.7;51.2
78767;SHT31;68092;51.982;5.680;2024-03-08T03:04:39;7.7;51.3
78767;SHT31;68092;51.982;5.680;2024-03-08T03:07:07;7.7;51.5
78767;SHT31;68092;51.982;5.680;2024-03-08T03:09:37;7.6;51.5
78767;SHT31;68092;51.982;5.680;2024-03-08T03:12:08;7.6;51.5
78767;SHT31;68092;51.982;5.680;2024-03-08T03:14:37;7.6;51.3
78767;SHT31;68092;51.982;5.680;2024-03-08T03:17:08;7.6;51.3
78767;SHT31;68092;51.982;5.680;2024-03-08T03:19:36;7.6;51.4
78767;SHT31;68092;51.982;5.680;2024-03-08T03:22:06;7.6;51.4
78767;SHT31;68092;51.982;5.680;2024-03-08T03:24:38;7.6;51.3
78767;SHT31;68092;51.982;5.680;2024-03-08T03:27:06;7.5;51.4
78767;SHT31;68092;51.982;5.680;2024-03-08T03:29:39;7.5;51.4
78767;SHT31;68092;51.982;5.680;2024-03-08T03:32:08;7.5;51.6
78767;SHT31;68092;51.982;5.680;2024-03-08T03:34:39;7.5;51.5
78767;SHT31;68092;51.982;5.680;2024-03-08T03:37:10;7.5;51.6
78767;SHT31;68092;51.982;5.680;2024-03-08T03:39:39;7.5;51.5
78767;SHT31;68092;51.982;5.680;2024-03-08T03:42:13;7.5;51.3
78767;SHT31;68092;51.982;5.680;2024-03-08T03:44:44;7.5;51.3
78767;SHT31;68092;51.982;5.680;2024-03-08T03:47:14;7.5;51.3
78767;SHT31;68092;51.982;5.680;2024-03-08T03:49:43;7.5;51.4
78767;SHT31;68092;51.982;5.680;2024-03-08T03:52:11;7.5;51.2
78767;SHT31;68092;51.982;5.680;2024-03-08T03:54:40;7.5;51.3
78767;SHT31;68092;51.982;5.680;2024-03-08T03:57:08;7.5;51.3
78767;SHT31;68092;51.982;5.680;2024-03-08T03:59:38;7.4;51.4
78767;SHT31;68092;51.982;5.680;2024-03-08T04:02:07;7.4;51.3
78767;SHT31;68092;51.982;5.680;2024-03-08T04:04:36;7.4;51.4
78767;SHT31;68092;51.982;5.680;2024-03-08T04:07:05;7.4;51.4
78767;SHT31;68092;51.982;5.680;2024-03-08T04:09:35;7.4;51.4
78767;SHT31;68092;51.982;5.680;2024-03-08T04:12:04;7.4;51.5
78767;SHT31;68092;51.982;5.680;2024-03-08T04:14:33;7.4;51.5
78767;SHT31;68092;51.982;5.680;2024-03-08T04:17:02;7.4;51.6
78767;SHT31;68092;51.982;5.680;2024-03-08T04:19:32;7.4;51.5
78767;SHT31;68092;51.982;5.680;2024-03-08T04:22:01;7.3;51.5
78767;SHT31;68092;51.982;5.680;2024-03-08T04:24:29;7.3;51.5
78767;SHT31;68092;51.982;5.680;2024-03-08T04:27:00;7.3;51.6
78767;SHT31;68092;51.982;5.680;2024-03-08T04:29:31;7.3;51.5
78767;SHT31;68092;51.982;5.680;2024-03-08T04:32:02;7.3;51.5
78767;SHT31;68092;51.982;5.680;2024-03-08T04:34:31;7.3;51.4
78767;SHT31;68092;51.982;5.680;2024-03-08T04:37:00;7.3;51.4
78767;SHT31;68092;51.982;5.680;2024-03-08T04:39:31;7.3;51.6
78767;SHT31;68092;51.982;5.680;2024-03-08T04:42:02;7.3;51.6
78767;SHT31;68092;51.982;5.680;2024-03-08T04:44:33;7.3;51.5
78767;SHT31;68092;51.982;5.680;2024-03-08T04:47:02;7.2;51.6
78767;SHT31;68092;51.982;5.680;2024-03-08T04:49:32;7.2;51.7
78767;SHT31;68092;51.982;5.680;2024-03-08T04:52:01;7.3;51.7
78767;SHT31;68092;51.982;5.680;2024-03-08T04:54:32;7.2;51.6
78767;SHT31;68092;51.982;5.680;2024-03-08T04:57:01;7.2;51.7
78767;SHT31;68092;51.982;5.680;2024-03-08T04:59:31;7.2;51.6
78767;SHT31;68092;51.982;5.680;2024-03-08T05:01:59;7.2;51.5
78767;SHT31;68092;51.982;5.680;2024-03-08T05:04:28;7.2;51.6
78767;SHT31;68092;51.982;5.680;2024-03-08T05:06:57;7.2;51.5
78767;SHT31;68092;51.982;5.680;2024-03-08T05:09:29;7.2;51.7
78767;SHT31;68092;51.982;5.680;2024-03-08T05:11:58;7.2;51.7
78767;SHT31;68092;51.982;5.680;2024-03-08T05:14:28;7.2;51.6
78767;SHT31;68092;51.982;5.680;2024-03-08T05:16:57;7.2;51.7
78767;SHT31;68092;51.982;5.680;2024-03-08T05:19:27;7.2;51.8
78767;SHT31;68092;51.982;5.680;2024-03-08T05:21:56;7.2;51.5
78767;SHT31;68092;51.982;5.680;2024-03-08T05:24:27;7.2;51.4
78767;SHT31;68092;51.982;5.680;2024-03-08T05:26:56;7.2;51.6
78767;SHT31;68092;51.982;5.680;2024-03-08T05:29:26;7.2;51.5
78767;SHT31;68092;51.982;5.680;2024-03-08T05:31:55;7.2;51.4
78767;SHT31;68092;51.982;5.680;2024-03-08T05:34:26;7.2;51.5
78767;SHT31;68092;51.982;5.680;2024-03-08T05:36:55;7.2;51.5
78767;SHT31;68092;51.982;5.680;2024-03-08T05:39:25;7.2;51.5
78767;SHT31;68092;51.982;5.680;2024-03-08T05:41:53;7.2;51.4
78767;SHT31;68092;51.982;5.680;2024-03-08T05:44:23;7.2;51.4
78767;SHT31;68092;51.982;5.680;2024-03-08T05:46:55;7.2;51.3
78767;SHT31;68092;51.982;5.680;2024-03-08T05:49:23;7.2;51.4
78767;SHT31;68092;51.982;5.680;2024-03-08T05:51:52;7.2;51.3
78767;SHT31;68092;51.982;5.680;2024-03-08T05:54:21;7.2;51.3
78767;SHT31;68092;51.982;5.680;2024-03-08T05:56:50;7.2;51.3
78767;SHT31;68092;51.982;5.680;2024-03-08T05:59:19;7.2;51.2
78767;SHT31;68092;51.982;5.680;2024-03-08T06:01:51;7.2;51.2
78767;SHT31;68092;51.982;5.680;2024-03-08T06:04:20;7.2;51.1
78767;SHT31;68092;51.982;5.680;2024-03-08T06:06:51;7.2;51.2
78767;SHT31;68092;51.982;5.680;2024-03-08T06:09:22;7.2;51.3
78767;SHT31;68092;51.982;5.680;2024-03-08T06:11:51;7.2;51.1
78767;SHT31;68092;51.982;5.680;2024-03-08T06:14:20;7.2;51.1
78767;SHT31;68092;51.982;5.680;2024-03-08T06:16:49;7.3;51.0
78767;SHT31;68092;51.982;5.680;2024-03-08T06:19:18;7.3;50.9
78767;SHT31;68092;51.982;5.680;2024-03-08T06:21:46;7.2;51.1
78767;SHT31;68092;51.982;5.680;2024-03-08T06:24:15;7.2;50.9
78767;SHT31;68092;51.982;5.680;2024-03-08T06:26:46;7.2;51.2
78767;SHT31;68092;51.982;5.680;2024-03-08T06:29:15;7.3;51.2
78767;SHT31;68092;51.982;5.680;2024-03-08T06:31:44;7.3;51.0
78767;SHT31;68092;51.982;5.680;2024-03-08T06:34:12;7.3;51.1
78767;SHT31;68092;51.982;5.680;2024-03-08T06:36:41;7.3;51.0
78767;SHT31;68092;51.982;5.680;2024-03-08T06:39:11;7.3;50.8
78767;SHT31;68092;51.982;5.680;2024-03-08T06:41:41;7.3;50.9
78767;SHT31;68092;51.982;5.680;2024-03-08T06:44:11;7.3;50.9
78767;SHT31;68092;51.982;5.680;2024-03-08T06:46:39;7.3;51.0
78767;SHT31;68092;51.982;5.680;2024-03-08T06:49:09;7.3;51.3
78767;SHT31;68092;51.982;5.680;2024-03-08T06:51:38;7.3;51.3
78767;SHT31;68092;51.982;5.680;2024-03-08T06:54:07;7.3;51.3
78767;SHT31;68092;51.982;5.680;2024-03-08T06:56:37;7.3;51.3
78767;SHT31;68092;51.982;5.680;2024-03-08T06:59:06;7.3;51.4
78767;SHT31;68092;51.982;5.680;2024-03-08T07:01:37;7.3;51.5
78767;SHT31;68092;51.982;5.680;2024-03-08T07:04:05;7.3;51.5
78767;SHT31;68092;51.982;5.680;2024-03-08T07:06:34;7.3;51.6
78767;SHT31;68092;51.982;5.680;2024-03-08T07:09:03;7.2;51.7
78767;SHT31;68092;51.982;5.680;2024-03-08T07:11:31;7.2;52.0
78767;SHT31;68092;51.982;5.680;2024-03-08T07:14:01;7.2;51.9
78767;SHT31;68092;51.982;5.680;2024-03-08T07:16:32;7.2;52.1
78767;SHT31;68092;51.982;5.680;2024-03-08T07:19:02;7.2;51.8
78767;SHT31;68092;51.982;5.680;2024-03-08T07:21:35;7.2;52.1
78767;SHT31;68092;51.982;5.680;2024-03-08T07:24:07;7.2;52.2
78767;SHT31;68092;51.982;5.680;2024-03-08T07:26:43;7.2;52.5
78767;SHT31;68092;51.982;5.680;2024-03-08T07:29:16;7.3;52.3
78767;SHT31;68092;51.982;5.680;2024-03-08T07:31:47;7.3;52.2
78767;SHT31;68092;51.982;5.680;2024-03-08T07:34:23;7.3;52.6
78767;SHT31;68092;51.982;5.680;2024-03-08T07:36:52;7.3;52.6
78767;SHT31;68092;51.982;5.680;2024-03-08T07:39:22;7.3;52.7
78767;SHT31;68092;51.982;5.680;2024-03-08T07:41:51;7.3;52.8
78767;SHT31;68092;51.982;5.680;2024-03-08T07:44:20;7.3;52.7
78767;SHT31;68092;51.982;5.680;2024-03-08T07:46:50;7.4;52.9
78767;SHT31;68092;51.982;5.680;2024-03-08T07:49:18;7.4;52.5
78767;SHT31;68092;51.982;5.680;2024-03-08T07:51:48;7.4;52.7
78767;SHT31;68092;51.982;5.680;2024-03-08T07:54:18;7.5;52.9
78767;SHT31;68092;51.982;5.680;2024-03-08T07:56:46;7.5;53.0
78767;SHT31;68092;51.982;5.680;2024-03-08T07:59:15;7.5;52.5
78767;SHT31;68092;51.982;5.680;2024-03-08T08:01:44;7.5;53.2
78767;SHT31;68092;51.982;5.680;2024-03-08T08:04:13;7.6;53.2
78767;SHT31;68092;51.982;5.680;2024-03-08T08:06:44;7.6;52.4
78767;SHT31;68092;51.982;5.680;2024-03-08T08:09:13;7.7;52.3
78767;SHT31;68092;51.982;5.680;2024-03-08T08:11:47;7.7;52.8
78767;SHT31;68092;51.982;5.680;2024-03-08T08:14:18;7.8;52.8
78767;SHT31;68092;51.982;5.680;2024-03-08T08:16:48;7.8;52.4
78767;SHT31;68092;51.982;5.680;2024-03-08T08:19:19;7.8;52.6
78767;SHT31;68092;51.982;5.680;2024-03-08T08:21:49;7.9;52.1
78767;SHT31;68092;51.982;5.680;2024-03-08T08:24:18;7.9;52.2
78767;SHT31;68092;51.982;5.680;2024-03-08T08:26:48;7.9;51.8
78767;SHT31;68092;51.982;5.680;2024-03-08T08:29:17;7.9;52.5
78767;SHT31;68092;51.982;5.680;2024-03-08T08:31:47;8.0;52.2
78767;SHT31;68092;51.982;5.680;2024-03-08T08:34:18;8.0;52.1
78767;SHT31;68092;51.982;5.680;2024-03-08T08:36:50;8.1;52.1
78767;SHT31;68092;51.982;5.680;2024-03-08T08:39:19;8.1;52.8
78767;SHT31;68092;51.982;5.680;2024-03-08T08:41:49;8.1;52.4
78767;SHT31;68092;51.982;5.680;2024-03-08T08:44:18;8.2;52.4
78767;SHT31;68092;51.982;5.680;2024-03-08T08:46:47;8.2;52.7
78767;SHT31;68092;51.982;5.680;2024-03-08T08:49:16;8.2;52.8
78767;SHT31;68092;51.982;5.680;2024-03-08T08:51:50;8.3;52.5
78767;SHT31;68092;51.982;5.680;2024-03-08T08:54:20;8.3;52.8
78767;SHT31;68092;51.982;5.680;2024-03-08T08:56:53;8.4;52.5
78767;SHT31;68092;51.982;5.680;2024-03-08T08:59:21;8.4;52.8
78767;SHT31;68092;51.982;5.680;2024-03-08T09:01:51;8.5;52.2
78767;SHT31;68092;51.982;5.680;2024-03-08T09:04:21;8.5;52.3
78767;SHT31;68092;51.982;5.680;2024-03-08T09:06:50;8.6;51.7
78767;SHT31;68092;51.982;5.680;2024-03-08T09:09:20;8.6;52.1
78767;SHT31;68092;51.982;5.680;2024-03-08T09:11:49;8.7;51.7
78767;SHT31;68092;51.982;5.680;2024-03-08T09:14:18;8.7;52.0
78767;SHT31;68092;51.982;5.680;2024-03-08T09:16:46;8.8;52.3
78767;SHT31;68092;51.982;5.680;2024-03-08T09:19:15;8.8;52.6
78767;SHT31;68092;51.982;5.680;2024-03-08T09:21:46;8.9;52.7
78767;SHT31;68092;51.982;5.680;2024-03-08T09:24:14;8.9;52.5
78767;SHT31;68092;51.982;5.680;2024-03-08T09:26:43;8.9;52.0
78767;SHT31;68092;51.982;5.680;2024-03-08T09:29:11;9.0;51.7
78767;SHT31;68092;51.982;5.680;2024-03-08T09:31:42;9.0;51.5
78767;SHT31;68092;51.982;5.680;2024-03-08T09:34:12;9.1;51.9
78767;SHT31;68092;51.982;5.680;2024-03-08T09:36:41;9.1;51.8
78767;SHT31;68092;51.982;5.680;2024-03-08T09:39:10;9.2;52.0
78767;SHT31;68092;51.982;5.680;2024-03-08T09:41:43;9.2;51.1
78767;SHT31;68092;51.982;5.680;2024-03-08T09:44:14;9.3;51.5
78767;SHT31;68092;51.982;5.680;2024-03-08T09:46:45;9.3;51.9
78767;SHT31;68092;51.982;5.680;2024-03-08T09:49:14;9.4;51.0
78767;SHT31;68092;51.982;5.680;2024-03-08T09:51:45;9.4;51.3
78767;SHT31;68092;51.982;5.680;2024-03-08T09:54:16;9.4;51.5
78767;SHT31;68092;51.982;5.680;2024-03-08T09:56:47;9.5;51.6
78767;SHT31;68092;51.982;5.680;2024-03-08T09:59:17;9.5;51.3
78767;SHT31;68092;51.982;5.680;2024-03-08T10:02:00;9.6;51.2
78767;SHT31;68092;51.982;5.680;2024-03-08T10:04:31;9.6;51.3
78767;SHT31;68092;51.982;5.680;2024-03-08T10:07:01;9.7;51.4
78767;SHT31;68092;51.982;5.680;2024-03-08T10:09:30;9.7;50.9
78767;SHT31;68092;51.982;5.680;2024-03-08T10:11:59;9.8;51.6
78767;SHT31;68092;51.982;5.680;2024-03-08T10:14:28;9.9;51.0
78767;SHT31;68092;51.982;5.680;2024-03-08T10:16:58;10.0;51.3
78767;SHT31;68092;51.982;5.680;2024-03-08T10:19:28;10.0;50.5
78767;SHT31;68092;51.982;5.680;2024-03-08T10:21:57;10.1;50.9
78767;SHT31;68092;51.982;5.680;2024-03-08T10:24:26;10.1;50.7
78767;SHT31;68092;51.982;5.680;2024-03-08T10:26:59;10.2;50.2
78767;SHT31;68092;51.982;5.680;2024-03-08T10:29:30;10.3;50.1
78767;SHT31;68092;51.982;5.680;2024-03-08T10:32:01;10.3;50.1
78767;SHT31;68092;51.982;5.680;2024-03-08T10:34:32;10.4;50.4
78767;SHT31;68092;51.982;5.680;2024-03-08T10:37:03;10.4;50.3
78767;SHT31;68092;51.982;5.680;2024-03-08T10:39:36;10.5;49.8
78767;SHT31;68092;51.982;5.680;2024-03-08T10:42:14;10.6;49.7
78767;SHT31;68092;51.982;5.680;2024-03-08T10:44:51;10.6;49.6
78767;SHT31;68092;51.982;5.680;2024-03-08T10:47:26;10.7;48.7
78767;SHT31;68092;51.982;5.680;2024-03-08T10:50:07;10.8;48.4
78767;SHT31;68092;51.982;5.680;2024-03-08T10:52:40;10.8;49.3
78767;SHT31;68092;51.982;5.680;2024-03-08T10:55:10;10.9;48.8
78767;SHT31;68092;51.982;5.680;2024-03-08T10:57:40;10.9;48.0
78767;SHT31;68092;51.982;5.680;2024-03-08T11:00:14;10.9;48.0
78767;SHT31;68092;51.982;5.680;2024-03-08T11:02:45;11.0;48.2
78767;SHT31;68092;51.982;5.680;2024-03-08T11:05:35;11.0;48.0
78767;SHT31;68092;51.982;5.680;2024-03-08T11:08:05;11.1;48.4
78767;SHT31;68092;51.982;5.680;2024-03-08T11:10:48;11.1;47.9
78767;SHT31;68092;51.982;5.680;2024-03-08T11:13:34;11.2;48.1
78767;SHT31;68092;51.982;5.680;2024-03-08T11:16:07;11.2;48.4
78767;SHT31;68092;51.982;5.680;2024-03-08T11:18:37;11.2;48.4
78767;SHT31;68092;51.982;5.680;2024-03-08T11:21:11;11.3;48.6
78767;SHT31;68092;51.982;5.680;2024-03-08T11:23:42;11.3;47.4
78767;SHT31;68092;51.982;5.680;2024-03-08T11:26:19;11.4;47.8
78767;SHT31;68092;51.982;5.680;2024-03-08T11:28:51;11.4;47.8
78767;SHT31;68092;51.982;5.680;2024-03-08T11:31:26;11.5;48.2
78767;SHT31;68092;51.982;5.680;2024-03-08T11:33:55;11.5;48.1
78767;SHT31;68092;51.982;5.680;2024-03-08T11:36:26;11.6;47.0
78767;SHT31;68092;51.982;5.680;2024-03-08T11:38:57;11.6;46.2
78767;SHT31;68092;51.982;5.680;2024-03-08T11:41:31;11.6;46.7
78767;SHT31;68092;51.982;5.680;2024-03-08T11:44:05;11.7;46.1
78767;SHT31;68092;51.982;5.680;2024-03-08T11:46:35;11.7;46.3
78767;SHT31;68092;51.982;5.680;2024-03-08T11:49:06;11.7;45.3
78767;SHT31;68092;51.982;5.680;2024-03-08T11:51:38;11.8;45.8
78767;SHT31;68092;51.982;5.680;2024-03-08T11:54:12;11.8;45.8
78767;SHT31;68092;51.982;5.680;2024-03-08T11:56:44;11.8;46.1
78767;SHT31;68092;51.982;5.680;2024-03-08T11:59:14;11.8;45.4
78767;SHT31;68092;51.982;5.680;2024-03-08T12:01:44;11.9;46.0
78767;SHT31;68092;51.982;5.680;2024-03-08T12:04:18;11.9;46.3
78767;SHT31;68092;51.982;5.680;2024-03-08T12:06:50;11.9;44.7
78767;SHT31;68092;51.982;5.680;2024-03-08T12:09:19;12.0;44.8
78767;SHT31;68092;51.982;5.680;2024-03-08T12:11:49;12.0;44.3
78767;SHT31;68092;51.982;5.680;2024-03-08T12:14:19;12.0;44.5
78767;SHT31;68092;51.982;5.680;2024-03-08T12:16:50;12.1;44.7
78767;SHT31;68092;51.982;5.680;2024-03-08T12:19:21;12.1;44.5
78767;SHT31;68092;51.982;5.680;2024-03-08T12:21:50;12.1;44.5
78767;SHT31;68092;51.982;5.680;2024-03-08T12:24:18;12.1;44.9
78767;SHT31;68092;51.982;5.680;2024-03-08T12:26:48;12.2;44.1
78767;SHT31;68092;51.982;5.680;2024-03-08T12:29:20;12.2;44.8
78767;SHT31;68092;51.982;5.680;2024-03-08T12:31:51;12.2;44.2
78767;SHT31;68092;51.982;5.680;2024-03-08T12:34:21;12.3;44.0
78767;SHT31;68092;51.982;5.680;2024-03-08T12:36:51;12.3;43.5
78767;SHT31;68092;51.982;5.680;2024-03-08T12:39:22;12.3;43.8
78767;SHT31;68092;51.982;5.680;2024-03-08T12:41:54;12.3;44.2
78767;SHT31;68092;51.982;5.680;2024-03-08T12:44:23;12.3;44.2
78767;SHT31;68092;51.982;5.680;2024-03-08T12:46:52;12.4;43.6
78767;SHT31;68092;51.982;5.680;2024-03-08T12:49:21;12.4;44.3
78767;SHT31;68092;51.982;5.680;2024-03-08T12:51:51;12.4;44.1
78767;SHT31;68092;51.982;5.680;2024-03-08T12:54:20;12.4;44.5
78767;SHT31;68092;51.982;5.680;2024-03-08T12:56:52;12.5;44.7
78767;SHT31;68092;51.982;5.680;2024-03-08T12:59:23;12.5;44.6
78767;SHT31;68092;51.982;5.680;2024-03-08T13:01:53;12.5;44.4
78767;SHT31;68092;51.982;5.680;2024-03-08T13:04:26;12.6;44.2
78767;SHT31;68092;51.982;5.680;2024-03-08T13:06:57;12.6;44.2
78767;SHT31;68092;51.982;5.680;2024-03-08T13:09:28;12.6;43.8
78767;SHT31;68092;51.982;5.680;2024-03-08T13:11:58;12.6;44.3
78767;SHT31;68092;51.982;5.680;2024-03-08T13:14:27;12.6;44.7
78767;SHT31;68092;51.982;5.680;2024-03-08T13:16:58;12.7;44.5
78767;SHT31;68092;51.982;5.680;2024-03-08T13:19:26;12.7;44.0
78767;SHT31;68092;51.982;5.680;2024-03-08T13:21:55;12.7;43.1
78767;SHT31;68092;51.982;5.680;2024-03-08T13:24:24;12.7;42.8
78767;SHT31;68092;51.982;5.680;2024-03-08T13:26:53;12.8;43.8
78767;SHT31;68092;51.982;5.680;2024-03-08T13:29:21;12.8;43.7
78767;SHT31;68092;51.982;5.680;2024-03-08T13:31:50;12.8;43.9
78767;SHT31;68092;51.982;5.680;2024-03-08T13:34:22;12.8;43.2
78767;SHT31;68092;51.982;5.680;2024-03-08T13:36:57;12.8;43.8
78767;SHT31;68092;51.982;5.680;2024-03-08T13:39:27;12.8;44.1
78767;SHT31;68092;51.982;5.680;2024-03-08T13:41:57;12.8;43.3
78767;SHT31;68092;51.982;5.680;2024-03-08T13:44:26;12.8;43.4
78767;SHT31;68092;51.982;5.680;2024-03-08T13:46:57;12.8;44.7
78767;SHT31;68092;51.982;5.680;2024-03-08T13:49:26;12.8;44.4
78767;SHT31;68092;51.982;5.680;2024-03-08T13:51:56;12.8;44.8
78767;SHT31;68092;51.982;5.680;2024-03-08T13:54:25;12.8;44.4
78767;SHT31;68092;51.982;5.680;2024-03-08T13:56:57;12.8;44.4
78767;SHT31;68092;51.982;5.680;2024-03-08T13:59:28;12.8;44.1
78767;SHT31;68092;51.982;5.680;2024-03-08T14:01:59;12.8;43.5
78767;SHT31;68092;51.982;5.680;2024-03-08T14:04:29;12.8;44.0
78767;SHT31;68092;51.982;5.680;2024-03-08T14:06:59;12.9;44.9
78767;SHT31;68092;51.982;5.680;2024-03-08T14:09:30;12.9;43.3
78767;SHT31;68092;51.982;5.680;2024-03-08T14:12:04;12.9;43.9
78767;SHT31;68092;51.982;5.680;2024-03-08T14:14:34;12.9;43.8
78767;SHT31;68092;51.982;5.680;2024-03-08T14:17:03;12.9;43.2
78767;SHT31;68092;51.982;5.680;2024-03-08T14:19:34;12.9;43.3
78767;SHT31;68092;51.982;5.680;2024-03-08T14:22:05;12.9;43.4
78767;SHT31;68092;51.982;5.680;2024-03-08T14:24:38;12.9;43.7
78767;SHT31;68092;51.982;5.680;2024-03-08T14:27:08;12.9;43.6
78767;SHT31;68092;51.982;5.680;2024-03-08T14:29:38;12.9;43.5
78767;SHT31;68092;51.982;5.680;2024-03-08T14:32:09;12.9;43.1
78767;SHT31;68092;51.982;5.680;2024-03-08T14:34:39;12.9;43.2
78767;SHT31;68092;51.982;5.680;2024-03-08T14:37:10;12.9;42.9
78767;SHT31;68092;51.982;5.680;2024-03-08T14:39:40;12.9;42.7
78767;SHT31;68092;51.982;5.680;2024-03-08T14:42:09;12.9;43.3
78767;SHT31;68092;51.982;5.680;2024-03-08T14:44:41;12.9;43.9
78767;SHT31;68092;51.982;5.680;2024-03-08T14:47:14;12.9;43.8
78767;SHT31;68092;51.982;5.680;2024-03-08T14:49:43;12.9;43.3
78767;SHT31;68092;51.982;5.680;2024-03-08T14:52:15;12.9;43.4
78767;SHT31;68092;51.982;5.680;2024-03-08T14:54:55;12.9;43.2
78767;SHT31;68092;51.982;5.680;2024-03-08T14:57:24;12.9;43.3
78767;SHT31;68092;51.982;5.680;2024-03-08T14:59:53;12.8;43.0
78767;SHT31;68092;51.982;5.680;2024-03-08T15:02:24;12.8;43.4
78767;SHT31;68092;51.982;5.680;2024-03-08T15:04:53;12.8;42.3
78767;SHT31;68092;51.982;5.680;2024-03-08T15:07:29;12.8;43.0
78767;SHT31;68092;51.982;5.680;2024-03-08T15:09:58;12.8;43.4
78767;SHT31;68092;51.982;5.680;2024-03-08T15:12:27;12.8;43.5
78767;SHT31;68092;51.982;5.680;2024-03-08T15:14:57;12.8;42.7
78767;SHT31;68092;51.982;5.680;2024-03-08T15:17:26;12.8;43.3
78767;SHT31;68092;51.982;5.680;2024-03-08T15:19:57;12.8;43.1
78767;SHT31;68092;51.982;5.680;2024-03-08T15:22:25;12.7;43.2
78767;SHT31;68092;51.982;5.680;2024-03-08T15:24:54;12.7;43.7
78767;SHT31;68092;51.982;5.680;2024-03-08T15:27:24;12.7;43.0
78767;SHT31;68092;51.982;5.680;2024-03-08T15:29:54;12.7;43.5
78767;SHT31;68092;51.982;5.680;2024-03-08T15:32:25;12.7;43.7
78767;SHT31;68092;51.982;5.680;2024-03-08T15:34:55;12.7;43.8
78767;SHT31;68092;51.982;5.680;2024-03-08T15:37:24;12.7;43.8
78767;SHT31;68092;51.982;5.680;2024-03-08T15:39:54;12.7;44.1
78767;SHT31;68092;51.982;5.680;2024-03-08T15:42:23;12.7;43.7
78767;SHT31;68092;51.982;5.680;2024-03-08T15:44:52;12.7;43.3
78767;SHT31;68092;51.982;5.680;2024-03-08T15:47:22;12.7;43.5
78767;SHT31;68092;51.982;5.680;2024-03-08T15:49:52;12.7;43.5
78767;SHT31;68092;51.982;5.680;2024-03-08T15:52:21;12.7;43.6
78767;SHT31;68092;51.982;5.680;2024-03-08T15:54:49;12.7;43.3
78767;SHT31;68092;51.982;5.680;2024-03-08T15:57:19;12.7;43.3
78767;SHT31;68092;51.982;5.680;2024-03-08T15:59:48;12.7;43.7
78767;SHT31;68092;51.982;5.680;2024-03-08T16:02:17;12.7;43.3
78767;SHT31;68092;51.982;5.680;2024-03-08T16:04:45;12.6;43.0
78767;SHT31;68092;51.982;5.680;2024-03-08T16:07:14;12.6;42.8
78767;SHT31;68092;51.982;5.680;2024-03-08T16:09:43;12.6;43.3
78767;SHT31;68092;51.982;5.680;2024-03-08T16:12:12;12.6;43.1
78767;SHT31;68092;51.982;5.680;2024-03-08T16:14:42;12.6;43.5
78767;SHT31;68092;51.982;5.680;2024-03-08T16:17:11;12.6;43.3
78767;SHT31;68092;51.982;5.680;2024-03-08T16:19:40;12.6;42.7
78767;SHT31;68092;51.982;5.680;2024-03-08T16:22:11;12.6;43.0
78767;SHT31;68092;51.982;5.680;2024-03-08T16:24:43;12.5;42.8
78767;SHT31;68092;51.982;5.680;2024-03-08T16:27:11;12.5;42.8
78767;SHT31;68092;51.982;5.680;2024-03-08T16:29:42;12.5;43.0